sensor_id;sensor_type;location;lat;lon;timestamp;P1;durP1;ratioP1;P2;durP2;ratioP2
61116;SDS011;47002;50.856;6.580;2022-07-23T00:00:01;0.00;;;0.00;;
61116;SDS011;47002;50.856;6.580;2022-07-23T00:02:26;0.00;;;0.00;;
61116;SDS011;47002;50.856;6.580;2022-07-23T00:04:53;0.00;;;0.00;;
61116;SDS011;47002;50.856;6.580;2022-07-23T00:07:19;0.00;;;0.00;;
61116;SDS011;47002;50.856;6.580;2022-07-23T00:09:45;0.00;;;0.00;;
61116;SDS011;47002;50.856;6.580;2022-07-23T00:12:10;0.00;;;0.00;;
61116;SDS011;47002;50.856;6.580;2022-07-23T00:14:36;0.00;;;0.00;;
61116;SDS011;47002;50.856;6.580;2022-07-23T00:17:02;0.00;;;0.00;;
61116;SDS011;47002;50.856;6.580;2022-07-23T00:19:28;0.00;;;0.00;;
61116;SDS011;47002;50.856;6.580;2022-07-23T00:21:55;0.00;;;0.00;;
61116;SDS011;47002;50.856;6.580;2022-07-23T00:24:20;0.00;;;0.00;;
61116;SDS011;47002;50.856;6.580;2022-07-23T00:26:46;0.00;;;0.00;;
61116;SDS011;47002;50.856;6.580;2022-07-23T00:29:12;0.00;;;0.00;;
61116;SDS011;47002;50.856;6.580;2022-07-23T00:31:37;0.00;;;0.00;;
61116;SDS011;47002;50.856;6.580;2022-07-23T00:34:03;0.00;;;0.00;;
61116;SDS011;47002;50.856;6.580;2022-07-23T00:36:29;0.00;;;0.00;;
61116;SDS011;47002;50.856;6.580;2022-07-23T00:38:56;0.00;;;0.00;;
61116;SDS011;47002;50.856;6.580;2022-07-23T00:41:22;0.00;;;0.00;;
61116;SDS011;47002;50.856;6.580;2022-07-23T00:43:48;0.00;;;0.00;;
61116;SDS011;47002;50.856;6.580;2022-07-23T00:46:18;0.00;;;0.00;;
61116;SDS011;47002;50.856;6.580;2022-07-23T00:48:44;0.00;;;0.00;;
61116;SDS011;47002;50.856;6.580;2022-07-23T00:51:10;0.00;;;0.00;;
61116;SDS011;47002;50.856;6.580;2022-07-23T00:53:35;0.00;;;0.00;;
61116;SDS011;47002;50.856;6.580;2022-07-23T00:56:03;0.00;;;0.00;;
61116;SDS011;47002;50.856;6.580;2022-07-23T00:58:29;0.00;;;0.00;;
61116;SDS011;47002;50.856;6.580;2022-07-23T01:00:55;0.00;;;0.00;;
61116;SDS011;47002;50.856;6.580;2022-07-23T01:03:21;0.00;;;0.00;;
61116;SDS011;47002;50.856;6.580;2022-07-23T01:05:46;0.00;;;0.00;;
61116;SDS011;47002;50.856;6.580;2022-07-23T01:08:12;0.00;;;0.00;;
61116;SDS011;47002;50.856;6.580;2022-07-23T01:10:38;0.00;;;0.00;;
61116;SDS011;47002;50.856;6.580;2022-07-23T01:13:06;0.00;;;0.00;;
61116;SDS011;47002;50.856;6.580;2022-07-23T01:15:32;0.00;;;0.00;;
61116;SDS011;47002;50.856;6.580;2022-07-23T01:17:59;0.00;;;0.00;;
61116;SDS011;47002;50.856;6.580;2022-07-23T01:20:25;0.00;;;0.00;;
61116;SDS011;47002;50.856;6.580;2022-07-23T01:22:53;0.00;;;0.00;;
61116;SDS011;47002;50.856;6.580;2022-07-23T01:25:19;0.00;;;0.00;;
61116;SDS011;47002;50.856;6.580;2022-07-23T01:27:45;0.00;;;0.00;;
61116;SDS011;47002;50.856;6.580;2022-07-23T01:30:11;0.00;;;0.00;;
61116;SDS011;47002;50.856;6.580;2022-07-23T01:32:37;0.00;;;0.00;;
61116;SDS011;47002;50.856;6.580;2022-07-23T01:35:04;0.00;;;0.00;;
61116;SDS011;47002;50.856;6.580;2022-07-23T01:37:31;0.00;;;0.00;;
61116;SDS011;47002;50.856;6.580;2022-07-23T01:39:58;0.00;;;0.00;;
61116;SDS011;47002;50.856;6.580;2022-07-23T01:42:24;0.00;;;0.00;;
61116;SDS011;47002;50.856;6.580;2022-07-23T01:44:50;0.00;;;0.00;;
61116;SDS011;47002;50.856;6.580;2022-07-23T01:47:15;0.00;;;0.00;;
61116;SDS011;47002;50.856;6.580;2022-07-23T01:49:41;0.00;;;0.00;;
61116;SDS011;47002;50.856;6.580;2022-07-23T01:52:07;0.00;;;0.00;;
61116;SDS011;47002;50.856;6.580;2022-07-23T01:54:33;0.00;;;0.00;;
61116;SDS011;47002;50.856;6.580;2022-07-23T01:57:00;0.00;;;0.00;;
61116;SDS011;47002;50.856;6.580;2022-07-23T01:59:26;0.00;;;0.00;;
61116;SDS011;47002;50.856;6.580;2022-07-23T02:01:52;0.00;;;0.00;;
61116;SDS011;47002;50.856;6.580;2022-07-23T02:04:18;0.00;;;0.00;;
61116;SDS011;47002;50.856;6.580;2022-07-23T02:06:45;0.00;;;0.00;;
61116;SDS011;47002;50.856;6.580;2022-07-23T02:09:10;0.00;;;0.00;;
61116;SDS011;47002;50.856;6.580;2022-07-23T02:11:36;0.00;;;0.00;;
61116;SDS011;47002;50.856;6.580;2022-07-23T02:14:03;0.00;;;0.00;;
61116;SDS011;47002;50.856;6.580;2022-07-23T02:16:29;0.00;;;0.00;;
61116;SDS011;47002;50.856;6.580;2022-07-23T02:18:55;0.00;;;0.00;;
61116;SDS011;47002;50.856;6.580;2022-07-23T02:21:20;0.00;;;0.00;;
61116;SDS011;47002;50.856;6.580;2022-07-23T02:23:46;0.00;;;0.00;;
61116;SDS011;47002;50.856;6.580;2022-07-23T02:26:12;0.00;;;0.00;;
61116;SDS011;47002;50.856;6.580;2022-07-23T02:28:38;0.00;;;0.00;;
61116;SDS011;47002;50.856;6.580;2022-07-23T02:31:05;0.00;;;0.00;;
61116;SDS011;47002;50.856;6.580;2022-07-23T02:33:31;0.00;;;0.00;;
61116;SDS011;47002;50.856;6.580;2022-07-23T02:35:57;0.00;;;0.00;;
61116;SDS011;47002;50.856;6.580;2022-07-23T02:38:23;0.00;;;0.00;;
61116;SDS011;47002;50.856;6.580;2022-07-23T02:40:48;0.00;;;0.00;;
61116;SDS011;47002;50.856;6.580;2022-07-23T02:43:14;0.00;;;0.00;;
61116;SDS011;47002;50.856;6.580;2022-07-23T02:45:40;0.00;;;0.00;;
61116;SDS011;47002;50.856;6.580;2022-07-23T02:48:07;0.00;;;0.00;;
61116;SDS011;47002;50.856;6.580;2022-07-23T02:50:32;0.00;;;0.00;;
61116;SDS011;47002;50.856;6.580;2022-07-23T02:52:58;0.00;;;0.00;;
61116;SDS011;47002;50.856;6.580;2022-07-23T02:55:24;0.00;;;0.00;;
61116;SDS011;47002;50.856;6.580;2022-07-23T02:57:50;0.00;;;0.00;;
61116;SDS011;47002;50.856;6.580;2022-07-23T03:00:15;0.00;;;0.00;;
61116;SDS011;47002;50.856;6.580;2022-07-23T03:02:41;0.00;;;0.00;;
61116;SDS011;47002;50.856;6.580;2022-07-23T03:05:09;0.00;;;0.00;;
61116;SDS011;47002;50.856;6.580;2022-07-23T03:07:35;0.00;;;0.00;;
61116;SDS011;47002;50.856;6.580;2022-07-23T03:10:01;0.00;;;0.00;;
61116;SDS011;47002;50.856;6.580;2022-07-23T03:12:26;0.00;;;0.00;;
61116;SDS011;47002;50.856;6.580;2022-07-23T03:14:52;0.00;;;0.00;;
61116;SDS011;47002;50.856;6.580;2022-07-23T03:17:18;0.00;;;0.00;;
61116;SDS011;47002;50.856;6.580;2022-07-23T03:19:43;0.00;;;0.00;;
61116;SDS011;47002;50.856;6.580;2022-07-23T03:22:10;0.00;;;0.00;;
61116;SDS011;47002;50.856;6.580;2022-07-23T03:24:36;0.00;;;0.00;;
61116;SDS011;47002;50.856;6.580;2022-07-23T03:27:02;0.00;;;0.00;;
61116;SDS011;47002;50.856;6.580;2022-07-23T03:29:28;0.00;;;0.00;;
61116;SDS011;47002;50.856;6.580;2022-07-23T03:31:53;0.00;;;0.00;;
61116;SDS011;47002;50.856;6.580;2022-07-23T03:34:19;0.00;;;0.00;;
61116;SDS011;47002;50.856;6.580;2022-07-23T03:36:45;0.00;;;0.00;;
61116;SDS011;47002;50.856;6.580;2022-07-23T03:39:12;0.00;;;0.00;;
61116;SDS011;47002;50.856;6.580;2022-07-23T03:41:37;0.00;;;0.00;;
61116;SDS011;47002;50.856;6.580;2022-07-23T03:44:03;0.00;;;0.00;;
61116;SDS011;47002;50.856;6.580;2022-07-23T03:46:29;0.00;;;0.00;;
61116;SDS011;47002;50.856;6.580;2022-07-23T03:48:55;0.00;;;0.00;;
61116;SDS011;47002;50.856;6.580;2022-07-23T03:51:20;0.00;;;0.00;;
61116;SDS011;47002;50.856;6.580;2022-07-23T03:53:46;0.00;;;0.00;;
61116;SDS011;47002;50.856;6.580;2022-07-23T03:56:13;0.00;;;0.00;;
61116;SDS011;47002;50.856;6.580;2022-07-23T03:58:39;0.00;;;0.00;;
61116;SDS011;47002;50.856;6.580;2022-07-23T04:01:05;0.00;;;0.00;;
61116;SDS011;47002;50.856;6.580;2022-07-23T04:03:30;0.00;;;0.00;;
61116;SDS011;47002;50.856;6.580;2022-07-23T04:05:56;0.00;;;0.00;;
61116;SDS011;47002;50.856;6.580;2022-07-23T04:08:22;0.00;;;0.00;;
61116;SDS011;47002;50.856;6.580;2022-07-23T04:10:48;0.00;;;0.00;;
61116;SDS011;47002;50.856;6.580;2022-07-23T04:13:15;0.00;;;0.00;;
61116;SDS011;47002;50.856;6.580;2022-07-23T04:15:40;0.00;;;0.00;;
61116;SDS011;47002;50.856;6.580;2022-07-23T04:18:06;0.00;;;0.00;;
61116;SDS011;47002;50.856;6.580;2022-07-23T04:20:32;0.00;;;0.00;;
61116;SDS011;47002;50.856;6.580;2022-07-23T04:22:57;0.00;;;0.00;;
61116;SDS011;47002;50.856;6.580;2022-07-23T04:25:23;0.00;;;0.00;;
61116;SDS011;47002;50.856;6.580;2022-07-23T04:27:49;0.00;;;0.00;;
61116;SDS011;47002;50.856;6.580;2022-07-23T04:30:16;0.00;;;0.00;;
61116;SDS011;47002;50.856;6.580;2022-07-23T04:32:42;0.00;;;0.00;;
61116;SDS011;47002;50.856;6.580;2022-07-23T04:35:08;0.00;;;0.00;;
61116;SDS011;47002;50.856;6.580;2022-07-23T04:37:33;0.00;;;0.00;;
61116;SDS011;47002;50.856;6.580;2022-07-23T04:39:59;0.00;;;0.00;;
61116;SDS011;47002;50.856;6.580;2022-07-23T04:42:25;0.00;;;0.00;;
61116;SDS011;47002;50.856;6.580;2022-07-23T04:44:51;0.00;;;0.00;;
61116;SDS011;47002;50.856;6.580;2022-07-23T04:47:18;0.00;;;0.00;;
61116;SDS011;47002;50.856;6.580;2022-07-23T04:49:43;0.00;;;0.00;;
61116;SDS011;47002;50.856;6.580;2022-07-23T04:52:09;0.00;;;0.00;;
61116;SDS011;47002;50.856;6.580;2022-07-23T04:54:35;0.00;;;0.00;;
61116;SDS011;47002;50.856;6.580;2022-07-23T04:57:00;0.00;;;0.00;;
61116;SDS011;47002;50.856;6.580;2022-07-23T04:59:26;0.00;;;0.00;;
61116;SDS011;47002;50.856;6.580;2022-07-23T05:01:52;0.00;;;0.00;;
61116;SDS011;47002;50.856;6.580;2022-07-23T05:04:19;0.00;;;0.00;;
61116;SDS011;47002;50.856;6.580;2022-07-23T05:06:44;0.00;;;0.00;;
61116;SDS011;47002;50.856;6.580;2022-07-23T05:09:11;0.00;;;0.00;;
61116;SDS011;47002;50.856;6.580;2022-07-23T05:11:37;0.00;;;0.00;;
61116;SDS011;47002;50.856;6.580;2022-07-23T05:14:02;0.00;;;0.00;;
61116;SDS011;47002;50.856;6.580;2022-07-23T05:16:28;0.00;;;0.00;;
61116;SDS011;47002;50.856;6.580;2022-07-23T05:18:54;0.00;;;0.00;;
61116;SDS011;47002;50.856;6.580;2022-07-23T05:21:21;0.00;;;0.00;;
61116;SDS011;47002;50.856;6.580;2022-07-23T05:23:46;0.00;;;0.00;;
61116;SDS011;47002;50.856;6.580;2022-07-23T05:26:12;0.00;;;0.00;;
61116;SDS011;47002;50.856;6.580;2022-07-23T05:28:38;0.00;;;0.00;;
61116;SDS011;47002;50.856;6.580;2022-07-23T05:31:04;0.00;;;0.00;;
61116;SDS011;47002;50.856;6.580;2022-07-23T05:33:29;0.00;;;0.00;;
61116;SDS011;47002;50.856;6.580;2022-07-23T05:35:59;0.00;;;0.00;;
61116;SDS011;47002;50.856;6.580;2022-07-23T05:38:27;0.00;;;0.00;;
61116;SDS011;47002;50.856;6.580;2022-07-23T05:40:52;0.00;;;0.00;;
61116;SDS011;47002;50.856;6.580;2022-07-23T05:43:18;0.00;;;0.00;;
61116;SDS011;47002;50.856;6.580;2022-07-23T05:45:44;0.00;;;0.00;;
61116;SDS011;47002;50.856;6.580;2022-07-23T05:48:09;0.00;;;0.00;;
61116;SDS011;47002;50.856;6.580;2022-07-23T05:50:35;0.00;;;0.00;;
61116;SDS011;47002;50.856;6.580;2022-07-23T05:53:01;0.00;;;0.00;;
61116;SDS011;47002;50.856;6.580;2022-07-23T05:55:28;0.00;;;0.00;;
61116;SDS011;47002;50.856;6.580;2022-07-23T05:57:54;0.00;;;0.00;;
61116;SDS011;47002;50.856;6.580;2022-07-23T06:00:20;0.00;;;0.00;;
61116;SDS011;47002;50.856;6.580;2022-07-23T06:02:45;0.00;;;0.00;;
61116;SDS011;47002;50.856;6.580;2022-07-23T06:05:11;0.00;;;0.00;;
61116;SDS011;47002;50.856;6.580;2022-07-23T06:07:37;0.00;;;0.00;;
61116;SDS011;47002;50.856;6.580;2022-07-23T06:10:03;0.00;;;0.00;;
61116;SDS011;47002;50.856;6.580;2022-07-23T06:12:31;0.00;;;0.00;;
61116;SDS011;47002;50.856;6.580;2022-07-23T06:14:57;0.00;;;0.00;;
61116;SDS011;47002;50.856;6.580;2022-07-23T06:17:23;0.00;;;0.00;;
61116;SDS011;47002;50.856;6.580;2022-07-23T06:19:48;0.00;;;0.00;;
61116;SDS011;47002;50.856;6.580;2022-07-23T06:22:14;0.00;;;0.00;;
61116;SDS011;47002;50.856;6.580;2022-07-23T06:24:40;0.00;;;0.00;;
61116;SDS011;47002;50.856;6.580;2022-07-23T06:27:06;0.00;;;0.00;;
61116;SDS011;47002;50.856;6.580;2022-07-23T06:29:33;0.00;;;0.00;;
61116;SDS011;47002;50.856;6.580;2022-07-23T06:31:58;0.00;;;0.00;;
61116;SDS011;47002;50.856;6.580;2022-07-23T06:34:24;0.00;;;0.00;;
61116;SDS011;47002;50.856;6.580;2022-07-23T06:36:50;0.00;;;0.00;;
61116;SDS011;47002;50.856;6.580;2022-07-23T06:39:15;0.00;;;0.00;;
61116;SDS011;47002;50.856;6.580;2022-07-23T06:41:41;0.00;;;0.00;;
61116;SDS011;47002;50.856;6.580;2022-07-23T06:44:07;0.00;;;0.00;;
61116;SDS011;47002;50.856;6.580;2022-07-23T06:46:34;0.00;;;0.00;;
61116;SDS011;47002;50.856;6.580;2022-07-23T06:49:00;0.00;;;0.00;;
61116;SDS011;47002;50.856;6.580;2022-07-23T06:51:25;0.00;;;0.00;;
61116;SDS011;47002;50.856;6.580;2022-07-23T06:53:51;0.00;;;0.00;;
61116;SDS011;47002;50.856;6.580;2022-07-23T06:56:17;0.00;;;0.00;;
61116;SDS011;47002;50.856;6.580;2022-07-23T06:58:42;0.00;;;0.00;;
61116;SDS011;47002;50.856;6.580;2022-07-23T07:01:08;0.00;;;0.00;;
61116;SDS011;47002;50.856;6.580;2022-07-23T07:03:35;0.00;;;0.00;;
61116;SDS011;47002;50.856;6.580;2022-07-23T07:06:01;0.00;;;0.00;;
61116;SDS011;47002;50.856;6.580;2022-07-23T07:08:27;0.00;;;0.00;;
61116;SDS011;47002;50.856;6.580;2022-07-23T07:10:53;0.00;;;0.00;;
61116;SDS011;47002;50.856;6.580;2022-07-23T07:13:18;0.00;;;0.00;;
61116;SDS011;47002;50.856;6.580;2022-07-23T07:15:44;0.00;;;0.00;;
61116;SDS011;47002;50.856;6.580;2022-07-23T07:18:10;0.00;;;0.00;;
61116;SDS011;47002;50.856;6.580;2022-07-23T07:20:37;0.00;;;0.00;;
61116;SDS011;47002;50.856;6.580;2022-07-23T07:23:03;0.00;;;0.00;;
61116;SDS011;47002;50.856;6.580;2022-07-23T07:25:28;0.00;;;0.00;;
61116;SDS011;47002;50.856;6.580;2022-07-23T07:27:54;0.00;;;0.00;;
61116;SDS011;47002;50.856;6.580;2022-07-23T07:30:20;0.00;;;0.00;;
61116;SDS011;47002;50.856;6.580;2022-07-23T07:32:46;0.00;;;0.00;;
61116;SDS011;47002;50.856;6.580;2022-07-23T07:35:11;0.00;;;0.00;;
61116;SDS011;47002;50.856;6.580;2022-07-23T07:37:39;0.00;;;0.00;;
61116;SDS011;47002;50.856;6.580;2022-07-23T07:40:05;0.00;;;0.00;;
61116;SDS011;47002;50.856;6.580;2022-07-23T07:42:31;0.00;;;0.00;;
61116;SDS011;47002;50.856;6.580;2022-07-23T07:44:57;0.00;;;0.00;;
61116;SDS011;47002;50.856;6.580;2022-07-23T07:47:23;0.00;;;0.00;;
61116;SDS011;47002;50.856;6.580;2022-07-23T07:49:48;0.00;;;0.00;;
61116;SDS011;47002;50.856;6.580;2022-07-23T07:52:14;0.00;;;0.00;;
61116;SDS011;47002;50.856;6.580;2022-07-23T07:54:41;0.00;;;0.00;;
61116;SDS011;47002;50.856;6.580;2022-07-23T07:57:07;0.00;;;0.00;;
61116;SDS011;47002;50.856;6.580;2022-07-23T07:59:33;0.00;;;0.00;;
61116;SDS011;47002;50.856;6.580;2022-07-23T08:01:59;0.00;;;0.00;;
61116;SDS011;47002;50.856;6.580;2022-07-23T08:04:24;0.00;;;0.00;;
61116;SDS011;47002;50.856;6.580;2022-07-23T08:06:50;0.00;;;0.00;;
61116;SDS011;47002;50.856;6.580;2022-07-23T08:09:16;0.00;;;0.00;;
61116;SDS011;47002;50.856;6.580;2022-07-23T08:11:43;0.00;;;0.00;;
61116;SDS011;47002;50.856;6.580;2022-07-23T08:14:09;0.00;;;0.00;;
61116;SDS011;47002;50.856;6.580;2022-07-23T08:16:34;0.00;;;0.00;;
61116;SDS011;47002;50.856;6.580;2022-07-23T08:19:00;0.00;;;0.00;;
61116;SDS011;47002;50.856;6.580;2022-07-23T08:21:26;0.00;;;0.00;;
61116;SDS011;47002;50.856;6.580;2022-07-23T08:23:51;0.00;;;0.00;;
61116;SDS011;47002;50.856;6.580;2022-07-23T08:26:17;0.00;;;0.00;;
61116;SDS011;47002;50.856;6.580;2022-07-23T08:28:44;0.00;;;0.00;;
61116;SDS011;47002;50.856;6.580;2022-07-23T08:31:10;0.00;;;0.00;;
61116;SDS011;47002;50.856;6.580;2022-07-23T08:33:35;0.00;;;0.00;;
61116;SDS011;47002;50.856;6.580;2022-07-23T08:36:02;0.00;;;0.00;;
61116;SDS011;47002;50.856;6.580;2022-07-23T08:38:29;0.00;;;0.00;;
61116;SDS011;47002;50.856;6.580;2022-07-23T08:40:55;0.00;;;0.00;;
61116;SDS011;47002;50.856;6.580;2022-07-23T08:43:22;0.00;;;0.00;;
61116;SDS011;47002;50.856;6.580;2022-07-23T08:45:50;0.00;;;0.00;;
61116;SDS011;47002;50.856;6.580;2022-07-23T08:48:18;0.00;;;0.00;;
61116;SDS011;47002;50.856;6.580;2022-07-23T08:50:46;0.00;;;0.00;;
61116;SDS011;47002;50.856;6.580;2022-07-23T08:53:14;0.00;;;0.00;;
61116;SDS011;47002;50.856;6.580;2022-07-23T08:55:42;0.00;;;0.00;;
61116;SDS011;47002;50.856;6.580;2022-07-23T08:58:09;0.00;;;0.00;;
61116;SDS011;47002;50.856;6.580;2022-07-23T09:00:34;0.00;;;0.00;;
61116;SDS011;47002;50.856;6.580;2022-07-23T09:03:02;0.00;;;0.00;;
61116;SDS011;47002;50.856;6.580;2022-07-23T09:05:28;0.00;;;0.00;;
61116;SDS011;47002;50.856;6.580;2022-07-23T09:08:04;0.00;;;0.00;;
61116;SDS011;47002;50.856;6.580;2022-07-23T09:10:43;0.00;;;0.00;;
61116;SDS011;47002;50.856;6.580;2022-07-23T09:13:22;0.00;;;0.00;;
61116;SDS011;47002;50.856;6.580;2022-07-23T09:15:53;0.00;;;0.00;;
61116;SDS011;47002;50.856;6.580;2022-07-23T09:18:28;0.00;;;0.00;;
61116;SDS011;47002;50.856;6.580;2022-07-23T09:21:05;0.00;;;0.00;;
61116;SDS011;47002;50.856;6.580;2022-07-23T09:23:36;0.00;;;0.00;;
61116;SDS011;47002;50.856;6.580;2022-07-23T09:26:02;0.00;;;0.00;;
61116;SDS011;47002;50.856;6.580;2022-07-23T09:28:50;0.00;;;0.00;;
61116;SDS011;47002;50.856;6.580;2022-07-23T09:31:17;0.00;;;0.00;;
61116;SDS011;47002;50.856;6.580;2022-07-23T09:33:45;0.00;;;0.00;;
61116;SDS011;47002;50.856;6.580;2022-07-23T09:36:10;0.00;;;0.00;;
61116;SDS011;47002;50.856;6.580;2022-07-23T09:38:36;0.00;;;0.00;;
61116;SDS011;47002;50.856;6.580;2022-07-23T09:41:13;0.00;;;0.00;;
61116;SDS011;47002;50.856;6.580;2022-07-23T09:43:39;0.00;;;0.00;;
61116;SDS011;47002;50.856;6.580;2022-07-23T09:46:21;0.00;;;0.00;;
61116;SDS011;47002;50.856;6.580;2022-07-23T09:48:49;0.00;;;0.00;;
61116;SDS011;47002;50.856;6.580;2022-07-23T09:51:15;0.00;;;0.00;;
61116;SDS011;47002;50.856;6.580;2022-07-23T09:53:40;0.00;;;0.00;;
61116;SDS011;47002;50.856;6.580;2022-07-23T09:56:06;0.00;;;0.00;;
61116;SDS011;47002;50.856;6.580;2022-07-23T09:58:33;0.00;;;0.00;;
61116;SDS011;47002;50.856;6.580;2022-07-23T10:01:03;0.00;;;0.00;;
61116;SDS011;47002;50.856;6.580;2022-07-23T10:03:29;0.00;;;0.00;;
61116;SDS011;47002;50.856;6.580;2022-07-23T10:05:56;0.00;;;0.00;;
61116;SDS011;47002;50.856;6.580;2022-07-23T10:08:22;0.00;;;0.00;;
61116;SDS011;47002;50.856;6.580;2022-07-23T10:10:48;0.00;;;0.00;;
61116;SDS011;47002;50.856;6.580;2022-07-23T10:13:16;0.00;;;0.00;;
61116;SDS011;47002;50.856;6.580;2022-07-23T10:15:42;0.00;;;0.00;;
61116;SDS011;47002;50.856;6.580;2022-07-23T10:18:09;0.00;;;0.00;;
61116;SDS011;47002;50.856;6.580;2022-07-23T10:20:35;0.03;;;0.00;;
61116;SDS011;47002;50.856;6.580;2022-07-23T10:23:04;0.00;;;0.00;;
61116;SDS011;47002;50.856;6.580;2022-07-23T10:25:41;0.00;;;0.00;;
61116;SDS011;47002;50.856;6.580;2022-07-23T10:28:14;0.00;;;0.00;;
61116;SDS011;47002;50.856;6.580;2022-07-23T10:31:00;0.00;;;0.00;;
61116;SDS011;47002;50.856;6.580;2022-07-23T10:33:32;0.00;;;0.00;;
61116;SDS011;47002;50.856;6.580;2022-07-23T10:36:12;0.00;;;0.00;;
61116;SDS011;47002;50.856;6.580;2022-07-23T10:38:48;0.00;;;0.00;;
61116;SDS011;47002;50.856;6.580;2022-07-23T10:41:30;0.00;;;0.00;;
61116;SDS011;47002;50.856;6.580;2022-07-23T10:44:05;0.00;;;0.00;;
61116;SDS011;47002;50.856;6.580;2022-07-23T10:46:32;0.00;;;0.00;;
61116;SDS011;47002;50.856;6.580;2022-07-23T10:54:48;0.00;;;0.00;;
61116;SDS011;47002;50.856;6.580;2022-07-23T10:57:15;0.00;;;0.00;;
61116;SDS011;47002;50.856;6.580;2022-07-23T11:02:46;0.10;;;0.10;;
61116;SDS011;47002;50.856;6.580;2022-07-23T11:05:13;0.00;;;0.00;;
61116;SDS011;47002;50.856;6.580;2022-07-23T11:10:52;0.00;;;0.00;;
61116;SDS011;47002;50.856;6.580;2022-07-23T11:13:29;0.10;;;0.10;;
61116;SDS011;47002;50.856;6.580;2022-07-23T11:16:13;0.00;;;0.00;;
61116;SDS011;47002;50.856;6.580;2022-07-23T11:18:59;0.00;;;0.00;;
61116;SDS011;47002;50.856;6.580;2022-07-23T11:21:49;0.00;;;0.00;;
61116;SDS011;47002;50.856;6.580;2022-07-23T11:24:19;0.10;;;0.10;;
61116;SDS011;47002;50.856;6.580;2022-07-23T11:26:49;0.00;;;0.00;;
61116;SDS011;47002;50.856;6.580;2022-07-23T11:29:38;0.00;;;0.00;;
61116;SDS011;47002;50.856;6.580;2022-07-23T11:32:05;0.00;;;0.00;;
61116;SDS011;47002;50.856;6.580;2022-07-23T11:34:32;0.00;;;0.00;;
61116;SDS011;47002;50.856;6.580;2022-07-23T11:36:59;0.10;;;0.10;;
61116;SDS011;47002;50.856;6.580;2022-07-23T11:39:27;0.00;;;0.00;;
61116;SDS011;47002;50.856;6.580;2022-07-23T11:41:55;0.00;;;0.00;;
61116;SDS011;47002;50.856;6.580;2022-07-23T11:44:24;0.10;;;0.10;;
61116;SDS011;47002;50.856;6.580;2022-07-23T11:46:54;0.10;;;0.10;;
61116;SDS011;47002;50.856;6.580;2022-07-23T11:49:20;0.10;;;0.10;;
61116;SDS011;47002;50.856;6.580;2022-07-23T11:51:46;0.10;;;0.10;;
61116;SDS011;47002;50.856;6.580;2022-07-23T11:54:12;0.10;;;0.10;;
61116;SDS011;47002;50.856;6.580;2022-07-23T11:56:37;0.10;;;0.10;;
61116;SDS011;47002;50.856;6.580;2022-07-23T11:59:21;0.10;;;0.10;;
61116;SDS011;47002;50.856;6.580;2022-07-23T12:01:58;0.10;;;0.10;;
61116;SDS011;47002;50.856;6.580;2022-07-23T12:04:24;0.10;;;0.10;;
61116;SDS011;47002;50.856;6.580;2022-07-23T12:07:01;0.10;;;0.10;;
61116;SDS011;47002;50.856;6.580;2022-07-23T12:09:27;0.10;;;0.10;;
61116;SDS011;47002;50.856;6.580;2022-07-23T12:11:58;0.10;;;0.10;;
61116;SDS011;47002;50.856;6.580;2022-07-23T12:14:24;0.10;;;0.10;;
61116;SDS011;47002;50.856;6.580;2022-07-23T12:19:33;0.10;;;0.10;;
61116;SDS011;47002;50.856;6.580;2022-07-23T12:21:59;0.10;;;0.10;;
61116;SDS011;47002;50.856;6.580;2022-07-23T12:24:25;0.10;;;0.10;;
61116;SDS011;47002;50.856;6.580;2022-07-23T12:29:36;0.10;;;0.10;;
61116;SDS011;47002;50.856;6.580;2022-07-23T12:32:02;0.10;;;0.10;;
61116;SDS011;47002;50.856;6.580;2022-07-23T12:34:39;0.10;;;0.10;;
61116;SDS011;47002;50.856;6.580;2022-07-23T12:37:05;0.10;;;0.10;;
61116;SDS011;47002;50.856;6.580;2022-07-23T12:39:31;0.10;;;0.10;;
61116;SDS011;47002;50.856;6.580;2022-07-23T12:41:57;0.10;;;0.10;;
61116;SDS011;47002;50.856;6.580;2022-07-23T12:44:24;0.15;;;0.15;;
61116;SDS011;47002;50.856;6.580;2022-07-23T12:46:50;0.10;;;0.10;;
61116;SDS011;47002;50.856;6.580;2022-07-23T12:49:24;0.13;;;0.13;;
61116;SDS011;47002;50.856;6.580;2022-07-23T12:51:51;0.10;;;0.10;;
61116;SDS011;47002;50.856;6.580;2022-07-23T12:54:17;0.10;;;0.10;;
61116;SDS011;47002;50.856;6.580;2022-07-23T12:56:44;0.20;;;0.20;;
61116;SDS011;47002;50.856;6.580;2022-07-23T12:59:10;0.10;;;0.10;;
61116;SDS011;47002;50.856;6.580;2022-07-23T13:01:40;0.10;;;0.10;;
61116;SDS011;47002;50.856;6.580;2022-07-23T13:04:07;0.20;;;0.20;;
61116;SDS011;47002;50.856;6.580;2022-07-23T13:06:34;0.10;;;0.10;;
61116;SDS011;47002;50.856;6.580;2022-07-23T13:09:02;0.10;;;0.10;;
61116;SDS011;47002;50.856;6.580;2022-07-23T13:11:29;0.10;;;0.10;;
61116;SDS011;47002;50.856;6.580;2022-07-23T13:13:55;0.10;;;0.10;;
61116;SDS011;47002;50.856;6.580;2022-07-23T13:16:21;0.20;;;0.20;;
61116;SDS011;47002;50.856;6.580;2022-07-23T13:18:48;0.10;;;0.10;;
61116;SDS011;47002;50.856;6.580;2022-07-23T13:21:14;0.20;;;0.20;;
61116;SDS011;47002;50.856;6.580;2022-07-23T13:23:40;0.20;;;0.20;;
61116;SDS011;47002;50.856;6.580;2022-07-23T13:26:07;0.20;;;0.20;;
61116;SDS011;47002;50.856;6.580;2022-07-23T13:28:33;0.20;;;0.20;;
61116;SDS011;47002;50.856;6.580;2022-07-23T13:30:58;0.20;;;0.20;;
61116;SDS011;47002;50.856;6.580;2022-07-23T13:33:24;0.20;;;0.20;;
61116;SDS011;47002;50.856;6.580;2022-07-23T13:35:52;0.20;;;0.20;;
61116;SDS011;47002;50.856;6.580;2022-07-23T13:38:18;0.20;;;0.20;;
61116;SDS011;47002;50.856;6.580;2022-07-23T13:40:47;0.20;;;0.20;;
61116;SDS011;47002;50.856;6.580;2022-07-23T13:43:14;0.30;;;0.30;;
61116;SDS011;47002;50.856;6.580;2022-07-23T13:45:42;0.30;;;0.30;;
61116;SDS011;47002;50.856;6.580;2022-07-23T13:48:08;0.40;;;0.40;;
61116;SDS011;47002;50.856;6.580;2022-07-23T13:50:35;0.40;;;0.40;;
61116;SDS011;47002;50.856;6.580;2022-07-23T13:53:03;0.45;;;0.45;;
61116;SDS011;47002;50.856;6.580;2022-07-23T13:55:30;0.50;;;0.50;;
61116;SDS011;47002;50.856;6.580;2022-07-23T13:57:56;0.60;;;0.60;;
61116;SDS011;47002;50.856;6.580;2022-07-23T14:00:21;0.70;;;0.60;;
61116;SDS011;47002;50.856;6.580;2022-07-23T14:02:47;0.80;;;0.80;;
61116;SDS011;47002;50.856;6.580;2022-07-23T14:05:13;1.00;;;0.90;;
61116;SDS011;47002;50.856;6.580;2022-07-23T14:07:39;1.15;;;1.05;;
61116;SDS011;47002;50.856;6.580;2022-07-23T14:10:07;1.40;;;1.30;;
61116;SDS011;47002;50.856;6.580;2022-07-23T14:12:33;1.80;;;1.70;;
61116;SDS011;47002;50.856;6.580;2022-07-23T14:14:59;2.10;;;2.00;;
61116;SDS011;47002;50.856;6.580;2022-07-23T14:17:26;2.40;;;2.30;;
61116;SDS011;47002;50.856;6.580;2022-07-23T14:19:51;2.40;;;2.30;;
61116;SDS011;47002;50.856;6.580;2022-07-23T14:22:17;2.50;;;2.40;;
61116;SDS011;47002;50.856;6.580;2022-07-23T14:24:43;2.50;;;2.40;;
61116;SDS011;47002;50.856;6.580;2022-07-23T14:27:10;2.50;;;2.40;;
61116;SDS011;47002;50.856;6.580;2022-07-23T14:29:36;2.42;;;2.33;;
61116;SDS011;47002;50.856;6.580;2022-07-23T14:32:02;2.40;;;2.30;;
61116;SDS011;47002;50.856;6.580;2022-07-23T14:34:29;2.60;;;2.50;;
61116;SDS011;47002;50.856;6.580;2022-07-23T14:36:54;2.60;;;2.50;;
61116;SDS011;47002;50.856;6.580;2022-07-23T14:39:20;2.60;;;2.50;;
61116;SDS011;47002;50.856;6.580;2022-07-23T14:41:46;2.42;;;2.33;;
61116;SDS011;47002;50.856;6.580;2022-07-23T14:44:13;2.45;;;2.35;;
61116;SDS011;47002;50.856;6.580;2022-07-23T14:46:39;2.70;;;2.60;;
61116;SDS011;47002;50.856;6.580;2022-07-23T14:49:05;3.00;;;2.90;;
61116;SDS011;47002;50.856;6.580;2022-07-23T14:51:31;3.35;;;3.15;;
61116;SDS011;47002;50.856;6.580;2022-07-23T14:53:56;3.58;;;3.38;;
61116;SDS011;47002;50.856;6.580;2022-07-23T14:56:22;3.92;;;3.72;;
61116;SDS011;47002;50.856;6.580;2022-07-23T14:58:48;4.10;;;3.90;;
61116;SDS011;47002;50.856;6.580;2022-07-23T15:01:15;4.65;;;4.45;;
61116;SDS011;47002;50.856;6.580;2022-07-23T15:03:41;5.20;;;4.90;;